Time;durP1;ratioP1;P1;durP2;ratioP2;P2;SDS_P1;SDS_P2;PMS_P1;PMS_P2;Temp;Humidity;BMP_temperature;BMP_pressure;BME280_temperature;BME280_humidity;BME280_pressure;Samples;Min_cycle;Max_cycle;Signal;HPM_P1;HPM_P2
2021/11/06 00:00:11;;;;;;;32.13;18.10;;;;;;;7.28;93.19;102205.16;5051559;28;20049;-56
2021/11/06 00:02:38;;;;;;;35.00;18.67;;;;;;;7.21;93.26;102203.88;5051252;28;20052;-53
2021/11/06 00:05:07;;;;;;;33.05;19.83;;;;;;;7.08;94.15;102207.34;5051024;28;20514;-55
2021/11/06 00:07:33;;;;;;;36.00;20.17;;;;;;;7.11;93.86;102204.53;5051408;28;20552;-56
2021/11/06 00:10:00;;;;;;;32.90;18.48;;;;;;;6.98;94.57;102213.13;5051443;28;20049;-57
2021/11/06 00:12:27;;;;;;;36.50;20.27;;;;;;;6.90;94.63;102207.56;5051358;28;20091;-55
2021/11/06 00:14:54;;;;;;;31.77;18.60;;;;;;;6.88;94.79;102209.41;5051117;28;20127;-56
2021/11/06 00:17:20;;;;;;;36.67;18.13;;;;;;;6.88;94.50;102200.75;5051223;28;20055;-57
2021/11/06 00:19:47;;;;;;;37.38;20.10;;;;;;;6.78;95.07;102194.44;5051267;28;20135;-57
2021/11/06 00:22:15;;;;;;;32.72;19.58;;;;;;;6.74;94.93;102192.97;5051066;28;20049;-58
2021/11/06 00:24:41;;;;;;;35.95;20.25;;;;;;;6.70;94.68;102204.47;5051205;28;20514;-55
2021/11/06 00:27:08;;;;;;;36.60;21.35;;;;;;;6.75;94.74;102208.47;5050914;28;20494;-56
2021/11/06 00:29:34;;;;;;;38.00;21.73;;;;;;;6.72;95.42;102193.03;5051142;28;20049;-54
2021/11/06 00:32:01;;;;;;;35.17;21.77;;;;;;;6.65;95.10;102202.97;5051129;28;20049;-53
2021/11/06 00:34:28;;;;;;;37.88;20.77;;;;;;;6.68;94.61;102207.16;5055096;28;20045;-56
2021/11/06 00:36:54;;;;;;;38.42;21.25;;;;;;;6.77;94.59;102206.63;5054411;28;20049;-53
2021/11/06 00:39:22;;;;;;;34.10;20.60;;;;;;;6.68;94.97;102211.53;5054852;28;20414;-52
2021/11/06 00:41:49;;;;;;;35.47;21.48;;;;;;;6.73;94.87;102215.53;5054737;28;20132;-53
2021/11/06 00:44:15;;;;;;;33.90;20.85;;;;;;;6.69;94.43;102219.25;5054748;28;20397;-53
2021/11/06 00:46:42;;;;;;;40.55;20.30;;;;;;;6.65;94.52;102213.38;5054273;28;20522;-56
2021/11/06 00:49:09;;;;;;;37.67;21.23;;;;;;;6.66;94.45;102214.22;5054876;28;20099;-56
2021/11/06 00:51:36;;;;;;;34.50;20.35;;;;;;;6.58;94.74;102212.09;5054573;28;20049;-57
2021/11/06 00:54:02;;;;;;;40.42;20.95;;;;;;;6.46;94.55;102212.00;5054595;28;20059;-56
2021/11/06 00:56:30;;;;;;;36.55;22.02;;;;;;;6.43;94.85;102214.78;5054084;28;20486;-56
2021/11/06 00:58:57;;;;;;;33.28;20.20;;;;;;;6.38;94.68;102219.41;5054649;28;20083;-57
2021/11/06 01:01:23;;;;;;;29.20;18.83;;;;;;;6.37;95.02;102217.72;5054377;28;20055;-55
2021/11/06 01:03:50;;;;;;;38.67;21.13;;;;;;;6.35;94.44;102223.03;5054419;28;20132;-57
2021/11/06 01:06:16;;;;;;;31.13;19.75;;;;;;;6.38;94.69;102214.22;5054208;28;20055;-57
2021/11/06 01:08:43;;;;;;;34.38;19.58;;;;;;;6.26;94.73;102220.94;5054290;28;20486;-55
2021/11/06 01:11:10;;;;;;;32.95;19.27;;;;;;;6.11;94.44;102233.09;5054185;28;20056;-53
2021/11/06 01:13:39;;;;;;;35.92;18.85;;;;;;;6.07;94.72;102223.81;5054363;28;20045;-57
2021/11/06 01:16:05;;;;;;;34.17;19.38;;;;;;;5.93;94.60;102234.13;5054159;28;20137;-55
2021/11/06 01:18:32;;;;;;;35.72;19.88;;;;;;;5.82;94.50;102226.91;5054099;28;20045;-55
2021/11/06 01:20:58;;;;;;;34.83;20.00;;;;;;;5.76;94.34;102227.25;5054052;28;20053;-58
2021/11/06 01:23:26;;;;;;;37.38;19.42;;;;;;;5.70;94.60;102235.38;5054045;28;20056;-55
2021/11/06 01:25:52;;;;;;;32.90;18.20;;;;;;;5.65;94.73;102230.47;5053689;28;20087;-55
2021/11/06 01:28:19;;;;;;;32.00;18.13;;;;;;;5.56;94.77;102225.78;5053961;28;20051;-57
2021/11/06 01:30:47;;;;;;;32.33;17.65;;;;;;;5.50;94.92;102228.72;5053952;28;20048;-57
2021/11/06 01:33:13;;;;;;;35.47;17.88;;;;;;;5.57;94.92;102227.47;5054052;28;20049;-57
2021/11/06 01:35:40;;;;;;;33.58;18.27;;;;;;;5.62;94.82;102235.84;5053574;28;20060;-54
2021/11/06 01:38:07;;;;;;;28.92;17.08;;;;;;;5.60;94.93;102227.28;5053404;28;20132;-56
2021/11/06 01:40:33;;;;;;;39.40;17.45;;;;;;;5.61;95.41;102231.56;5053915;28;20543;-57
2021/11/06 01:43:00;;;;;;;35.15;17.25;;;;;;;5.64;95.11;102230.56;5053787;28;20071;-53
2021/11/06 01:45:26;;;;;;;39.83;20.10;;;;;;;5.85;95.81;102229.34;5053375;28;20051;-56
2021/11/06 01:47:54;;;;;;;38.38;17.63;;;;;;;5.78;95.17;102232.38;5053558;28;20053;-57
2021/11/06 01:50:22;;;;;;;31.23;15.95;;;;;;;5.75;95.49;102225.56;5052809;28;20136;-56
2021/11/06 01:52:49;;;;;;;35.33;16.15;;;;;;;5.59;94.81;102227.38;5053565;28;20741;-58
2021/11/06 01:55:16;;;;;;;32.65;15.75;;;;;;;5.54;95.30;102222.44;5053431;28;20045;-56
2021/11/06 01:57:44;;;;;;;28.17;15.27;;;;;;;5.41;95.17;102224.03;5053589;28;20044;-53
2021/11/06 02:00:12;;;;;;;31.20;15.60;;;;;;;5.47;95.73;102221.09;5053544;28;20139;-56
2021/11/06 02:02:41;;;;;;;28.27;15.90;;;;;;;5.44;95.02;102218.66;5053136;28;20045;-56
2021/11/06 02:05:09;;;;;;;30.58;15.32;;;;;;;5.51;95.29;102222.59;5053258;28;20453;-56
2021/11/06 02:07:36;;;;;;;34.50;15.70;;;;;;;5.59;95.37;102225.63;5053315;28;20040;-57
2021/11/06 02:10:04;;;;;;;33.28;16.30;;;;;;;5.60;95.74;102224.69;5053321;28;20055;-54
2021/11/06 02:12:30;;;;;;;37.60;17.42;;;;;;;5.60;95.77;102235.09;5053051;28;20048;-53
2021/11/06 02:14:57;;;;;;;31.02;16.98;;;;;;;5.55;95.83;102226.72;5052864;28;20428;-55
2021/11/06 02:17:24;;;;;;;33.55;16.77;;;;;;;5.50;96.06;102226.13;5052998;28;20405;-58
2021/11/06 02:19:50;;;;;;;34.20;16.48;;;;;;;5.48;95.91;102225.38;5052955;28;20049;-58
2021/11/06 02:22:18;;;;;;;39.97;17.98;;;;;;;5.53;96.45;102225.94;5052605;28;20045;-56
2021/11/06 02:24:45;;;;;;;35.53;17.60;;;;;;;5.67;96.18;102225.19;5052941;28;20398;-58
2021/11/06 02:27:11;;;;;;;42.78;18.48;;;;;;;5.72;96.00;102227.50;5052702;28;20110;-55
2021/11/06 02:29:38;;;;;;;44.33;19.52;;;;;;;5.74;95.82;102226.50;5052681;28;20067;-56
2021/11/06 02:32:06;;;;;;;40.33;17.23;;;;;;;5.79;95.73;102236.63;5052965;28;20052;-55
2021/11/06 02:34:33;;;;;;;40.17;17.17;;;;;;;5.75;95.21;102233.38;5052893;28;20053;-58
2021/11/06 02:37:00;;;;;;;44.00;19.33;;;;;;;5.73;96.04;102231.78;5052074;28;20049;-55
2021/11/06 02:39:28;;;;;;;37.78;17.92;;;;;;;5.70;96.17;102226.75;5052617;28;20052;-55
2021/11/06 02:41:59;;;;;;;33.72;16.25;;;;;;;5.61;95.67;102234.16;5052360;28;20412;-58
2021/11/06 02:44:26;;;;;;;35.63;18.00;;;;;;;5.51;95.80;102225.19;5049355;28;20456;-56
2021/11/06 02:46:52;;;;;;;35.65;17.20;;;;;;;5.45;95.19;102222.94;5036335;28;20049;-56
2021/11/06 02:49:19;;;;;;;42.85;18.60;;;;;;;5.56;95.62;102225.78;5031794;28;20055;-57
2021/11/06 02:51:45;;;;;;;34.83;16.50;;;;;;;5.53;95.55;102231.16;5034790;28;20132;-56
2021/11/06 02:54:12;;;;;;;39.78;20.10;;;;;;;5.58;95.77;102228.28;5032583;28;20060;-56
2021/11/06 02:56:40;;;;;;;43.88;18.60;;;;;;;5.64;95.23;102227.97;5031580;28;20049;-56
2021/11/06 02:59:07;;;;;;;36.42;17.73;;;;;;;5.57;95.24;102224.88;5032623;28;20052;-56
2021/11/06 03:01:34;;;;;;;38.17;17.02;;;;;;;5.55;95.54;102228.47;5032212;28;20052;-56
2021/11/06 03:04:01;;;;;;;36.03;18.10;;;;;;;5.53;95.55;102225.13;5032323;28;20049;-53
2021/11/06 03:06:27;;;;;;;51.03;18.88;;;;;;;5.63;95.43;102229.72;5031745;28;20071;-56
2021/11/06 03:08:54;;;;;;;35.20;17.48;;;;;;;5.57;95.02;102227.47;5032154;28;20081;-56
2021/11/06 03:11:21;;;;;;;37.17;17.45;;;;;;;5.55;95.05;102225.88;5032425;28;20049;-57
2021/11/06 03:13:49;;;;;;;39.88;20.38;;;;;;;5.55;95.29;102228.47;5032431;28;20140;-55
2021/11/06 03:16:16;;;;;;;39.70;18.38;;;;;;;5.49;94.93;102226.19;5032059;28;20081;-56
2021/11/06 03:18:43;;;;;;;40.45;17.92;;;;;;;5.52;94.79;102219.09;5032116;28;20502;-58
2021/11/06 03:21:09;;;;;;;38.88;17.30;;;;;;;5.44;95.18;102210.88;5032147;28;20045;-55
2021/11/06 03:23:36;;;;;;;32.92;16.88;;;;;;;5.49;94.54;102216.66;5031963;28;20056;-58
2021/11/06 03:26:03;;;;;;;37.92;17.80;;;;;;;5.50;95.37;102217.50;5031645;28;20056;-56
2021/11/06 03:28:29;;;;;;;39.58;18.30;;;;;;;5.50;94.84;102213.13;5031935;28;20056;-57
2021/11/06 03:30:57;;;;;;;43.53;18.92;;;;;;;5.47;94.85;102215.06;5031916;28;20059;-57
2021/11/06 03:33:24;;;;;;;32.42;15.85;;;;;;;5.40;95.00;102214.56;5031984;28;20417;-56
2021/11/06 03:35:50;;;;;;;31.08;16.58;;;;;;;5.44;94.77;102212.63;5031782;28;20502;-58
2021/11/06 03:38:17;;;;;;;34.97;16.60;;;;;;;5.41;94.95;102211.03;5031888;28;20505;-55
2021/11/06 03:40:43;;;;;;;38.67;17.70;;;;;;;5.41;94.49;102218.81;5032076;28;20056;-56
2021/11/06 03:43:10;;;;;;;36.45;20.05;;;;;;;5.46;94.62;102221.19;5031787;28;20059;-51
2021/11/06 03:45:37;;;;;;;44.00;20.73;;;;;;;5.44;94.56;102221.25;5031497;28;20338;-55
2021/11/06 03:48:06;;;;;;;37.95;20.63;;;;;;;5.42;94.41;102222.25;5031661;28;20057;-54
2021/11/06 03:50:32;;;;;;;39.60;20.25;;;;;;;5.43;94.57;102219.59;5031511;28;20057;-58
2021/11/06 03:52:59;;;;;;;38.47;19.20;;;;;;;5.43;94.46;102222.19;5031889;28;20136;-55
2021/11/06 03:55:25;;;;;;;36.67;19.75;;;;;;;5.36;94.58;102230.38;5031320;28;20056;-56
2021/11/06 03:57:52;;;;;;;34.97;19.38;;;;;;;5.26;94.30;102227.44;5031851;28;20161;-55
2021/11/06 04:00:19;;;;;;;36.05;21.15;;;;;;;5.28;94.43;102231.63;5031751;28;20482;-57
2021/11/06 04:02:46;;;;;;;35.53;19.38;;;;;;;5.22;94.15;102226.78;5031283;28;20049;-57
2021/11/06 04:05:14;;;;;;;31.95;17.30;;;;;;;5.17;94.49;102228.81;5031543;28;20060;-56
2021/11/06 04:07:41;;;;;;;36.22;20.00;;;;;;;5.11;94.51;102228.28;5032947;28;20140;-54
2021/11/06 04:10:09;;;;;;;33.35;17.92;;;;;;;5.09;94.70;102230.13;5035736;28;20516;-56
2021/11/06 04:12:36;;;;;;;36.80;19.50;;;;;;;5.06;95.46;102231.13;5035579;28;20050;-54
2021/11/06 04:15:03;;;;;;;39.20;20.90;;;;;;;5.04;95.26;102235.56;5035277;28;20403;-54
2021/11/06 04:17:30;;;;;;;40.60;22.08;;;;;;;5.07;95.20;102234.56;5035291;28;20495;-53
2021/11/06 04:19:56;;;;;;;42.33;21.42;;;;;;;4.99;94.63;102234.97;5035632;28;20409;-56
2021/11/06 04:22:24;;;;;;;35.20;19.95;;;;;;;4.98;94.91;102228.09;5035355;28;20417;-56
2021/11/06 04:24:51;;;;;;;33.33;18.95;;;;;;;5.09;95.00;102235.31;5035159;28;20123;-56
2021/11/06 04:27:17;;;;;;;37.78;19.77;;;;;;;5.01;94.56;102238.31;5035325;28;20055;-54
2021/11/06 04:29:44;;;;;;;32.50;17.80;;;;;;;5.68;95.39;102235.47;5035257;28;20055;-57
2021/11/06 04:32:10;;;;;;;33.17;18.70;;;;;;;5.60;95.30;102232.47;5035016;28;20132;-55
2021/11/06 04:34:37;;;;;;;31.17;18.90;;;;;;;5.68;93.93;102237.22;5035317;28;20049;-55
2021/11/06 04:37:04;;;;;;;35.80;18.30;;;;;;;5.54;93.40;102232.81;5035005;28;20049;-55
2021/11/06 04:39:32;;;;;;;33.42;18.27;;;;;;;5.60;92.55;102242.03;5035059;28;20546;-55
2021/11/06 04:41:58;;;;;;;30.27;18.95;;;;;;;5.42;93.06;102243.03;5035007;28;20060;-56
2021/11/06 04:44:25;;;;;;;37.08;19.10;;;;;;;5.24;92.75;102244.84;5034835;28;20053;-56
2021/11/06 04:46:52;;;;;;;37.03;18.98;;;;;;;5.20;93.37;102243.38;5040735;28;20049;-57
2021/11/06 04:49:18;;;;;;;29.40;18.42;;;;;;;5.11;93.30;102239.50;5036631;28;20128;-54
2021/11/06 04:51:45;;;;;;;31.63;19.23;;;;;;;5.07;93.83;102248.38;5053059;28;20059;-58
2021/11/06 04:54:12;;;;;;;36.00;19.75;;;;;;;5.06;93.66;102245.84;5053688;28;20049;-53
2021/11/06 04:56:40;;;;;;;34.28;19.20;;;;;;;5.10;94.19;102240.41;5053760;28;20049;-56
2021/11/06 04:59:06;;;;;;;30.20;19.67;;;;;;;5.05;93.91;102239.00;5053833;28;20502;-56
2021/11/06 05:01:33;;;;;;;32.88;19.25;;;;;;;5.02;93.76;102244.34;5053227;28;20048;-57
2021/11/06 05:03:59;;;;;;;34.35;20.33;;;;;;;4.98;93.87;102244.50;5053980;28;20544;-59
2021/11/06 05:06:27;;;;;;;34.58;19.52;;;;;;;4.92;94.27;102238.78;5053351;28;20511;-56
2021/11/06 05:08:54;;;;;;;37.90;20.80;;;;;;;4.89;94.18;102233.75;5042456;28;20492;-54
2021/11/06 05:11:21;;;;;;;33.75;20.50;;;;;;;4.91;93.91;102237.94;5032125;28;20045;-57
2021/11/06 05:13:49;;;;;;;37.20;21.38;;;;;;;4.88;94.45;102238.09;5033716;28;20076;-53
2021/11/06 05:16:15;;;;;;;34.60;19.55;;;;;;;4.89;94.35;102234.59;5051198;28;20494;-56
2021/11/06 05:18:43;;;;;;;35.92;21.48;;;;;;;4.84;94.35;102235.75;5050347;28;20053;-57
2021/11/06 05:21:09;;;;;;;35.20;20.65;;;;;;;4.80;94.49;102235.06;5051364;28;20048;-52
2021/11/06 05:23:36;;;;;;;34.90;20.10;;;;;;;4.78;94.72;102236.91;5053565;28;20049;-53
2021/11/06 05:26:02;;;;;;;34.72;19.75;;;;;;;4.80;94.39;102239.41;5053092;28;20251;-54
2021/11/06 05:28:29;;;;;;;34.40;19.00;;;;;;;4.86;94.27;102239.94;5053146;28;20049;-56
2021/11/06 05:30:57;;;;;;;35.00;19.85;;;;;;;4.86;94.74;102234.75;5051969;28;20059;-54
2021/11/06 05:33:23;;;;;;;39.78;20.05;;;;;;;4.84;94.70;102236.59;5053084;28;20128;-56
2021/11/06 05:35:50;;;;;;;36.47;20.15;;;;;;;4.85;93.70;102227.88;5053170;28;20704;-57
2021/11/06 05:38:17;;;;;;;33.97;19.98;;;;;;;4.79;94.24;102223.03;5053308;28;20413;-56
2021/11/06 05:40:44;;;;;;;32.40;18.30;;;;;;;4.77;94.15;102219.66;5052062;28;20484;-56
2021/11/06 05:43:11;;;;;;;33.92;19.38;;;;;;;4.75;94.00;102224.09;5052676;28;20049;-57
2021/11/06 05:45:38;;;;;;;33.92;18.50;;;;;;;4.78;94.27;102226.53;5052907;28;20057;-56
2021/11/06 05:48:07;;;;;;;31.52;16.98;;;;;;;4.70;94.33;102218.34;5053318;28;20405;-57
2021/11/06 05:50:34;;;;;;;33.13;17.88;;;;;;;4.66;93.95;102222.00;5052106;28;20049;-58
2021/11/06 05:53:01;;;;;;;33.55;18.35;;;;;;;4.60;93.98;102220.56;5051457;28;20072;-57
2021/11/06 05:55:27;;;;;;;30.83;17.67;;;;;;;4.55;93.85;102226.91;5052777;28;20059;-54
2021/11/06 05:57:54;;;;;;;35.95;18.50;;;;;;;4.53;93.87;102224.38;5053826;28;20060;-52
2021/11/06 06:00:21;;;;;;;32.72;16.83;;;;;;;4.51;94.02;102223.63;5053662;28;20045;-57
2021/11/06 06:02:49;;;;;;;31.58;17.52;;;;;;;4.45;93.84;102217.91;5053765;28;20055;-57
2021/11/06 06:05:17;;;;;;;35.03;16.80;;;;;;;4.46;93.55;102229.94;5053297;28;20061;-56
2021/11/06 06:07:43;;;;;;;30.30;17.25;;;;;;;4.43;93.52;102228.34;5053424;28;20065;-55
2021/11/06 06:10:12;;;;;;;30.55;16.45;;;;;;;4.42;93.25;102229.25;5053553;28;20051;-54
2021/11/06 06:12:38;;;;;;;30.77;17.30;;;;;;;4.41;93.14;102243.13;5053236;28;20053;-55
2021/11/06 06:15:06;;;;;;;36.17;16.98;;;;;;;4.35;93.50;102238.25;5052969;28;20476;-56
2021/11/06 06:17:33;;;;;;;33.05;16.65;;;;;;;4.36;93.45;102237.34;5053372;28;20059;-56
2021/11/06 06:20:00;;;;;;;37.35;16.52;;;;;;;4.31;93.73;102231.56;5053372;28;20045;-57
2021/11/06 06:22:28;;;;;;;33.65;16.67;;;;;;;4.25;93.78;102237.88;5053116;28;20413;-60
2021/11/06 06:24:54;;;;;;;38.10;18.30;;;;;;;4.21;93.56;102231.19;5052994;28;20045;-54
2021/11/06 06:27:21;;;;;;;36.92;19.65;;;;;;;4.20;94.22;102232.09;5053224;28;20055;-60
2021/11/06 06:29:47;;;;;;;35.28;16.67;;;;;;;4.21;94.26;102238.13;5052198;28;20056;-53
2021/11/06 06:32:14;;;;;;;36.03;16.25;;;;;;;4.13;93.78;102242.84;5053193;28;20144;-56
2021/11/06 06:34:41;;;;;;;34.97;15.82;;;;;;;4.08;93.69;102245.66;5052703;28;20049;-53
2021/11/06 06:37:07;;;;;;;36.90;16.80;;;;;;;4.07;94.17;102241.38;5052552;28;20076;-58
2021/11/06 06:39:35;;;;;;;37.15;16.90;;;;;;;4.08;94.02;102239.63;5052606;28;20053;-55
2021/11/06 06:42:02;;;;;;;33.92;16.38;;;;;;;4.06;94.12;102255.25;5052742;28;20055;-58
2021/11/06 06:44:29;;;;;;;31.83;15.88;;;;;;;4.04;93.81;102262.25;5052802;28;20071;-56
2021/11/06 06:46:56;;;;;;;34.58;15.43;;;;;;;4.02;93.51;102266.66;5052569;28;20052;-56
2021/11/06 06:49:22;;;;;;;30.90;15.68;;;;;;;4.03;94.16;102267.50;5052780;28;20140;-57
2021/11/06 06:51:49;;;;;;;32.38;14.70;;;;;;;4.07;93.20;102271.63;5052777;28;20056;-55
2021/11/06 06:54:15;;;;;;;28.27;15.15;;;;;;;4.00;93.77;102277.09;5053093;28;20055;-54
2021/11/06 06:56:44;;;;;;;30.02;14.95;;;;;;;3.98;93.43;102265.13;5052452;28;20044;-57
2021/11/06 06:59:11;;;;;;;26.35;14.00;;;;;;;3.95;93.54;102275.66;5052792;28;20045;-55
2021/11/06 07:01:38;;;;;;;29.05;15.20;;;;;;;3.94;93.59;102273.97;5052725;28;20528;-58
2021/11/06 07:04:05;;;;;;;36.92;18.40;;;;;;;3.94;93.89;102269.63;5052417;28;20057;-58
2021/11/06 07:06:32;;;;;;;34.38;17.60;;;;;;;3.96;94.21;102267.81;5052389;28;20412;-56
2021/11/06 07:09:00;;;;;;;27.83;14.20;;;;;;;3.95;93.53;102271.31;5052490;28;20077;-56
2021/11/06 07:11:26;;;;;;;62.08;42.00;;;;;;;3.99;93.55;102278.03;5052357;28;20049;-53
2021/11/06 07:13:54;;;;;;;103.13;67.28;;;;;;;4.00;93.68;102276.25;5052625;28;20051;-52
2021/11/06 07:16:21;;;;;;;206.38;93.47;;;;;;;4.01;93.51;102272.75;5052223;28;20061;-53
2021/11/06 07:18:48;;;;;;;236.15;93.40;;;;;;;4.04;93.76;102274.38;5052290;28;20045;-58
2021/11/06 07:21:14;;;;;;;24.40;14.70;;;;;;;4.08;93.43;102281.09;5052129;28;20114;-57
2021/11/06 07:23:41;;;;;;;23.60;15.65;;;;;;;4.09;93.25;102278.41;5051990;28;20080;-57
2021/11/06 07:26:08;;;;;;;24.05;15.60;;;;;;;4.14;93.15;102276.44;5051742;28;20053;-59
2021/11/06 07:28:34;;;;;;;28.80;15.48;;;;;;;4.19;93.16;102284.00;5051979;28;20048;-58
2021/11/06 07:31:02;;;;;;;26.20;15.32;;;;;;;4.21;93.53;102277.00;5051736;28;20134;-57
2021/11/06 07:33:29;;;;;;;25.13;15.50;;;;;;;4.24;93.10;102277.69;5051626;28;20053;-57
2021/11/06 07:35:56;;;;;;;21.73;13.93;;;;;;;4.28;92.88;102276.59;5051745;28;20070;-54
2021/11/06 07:38:22;;;;;;;21.17;13.50;;;;;;;4.36;92.49;102271.03;5051630;28;20044;-56
2021/11/06 07:40:49;;;;;;;22.17;13.63;;;;;;;4.45;93.21;102272.34;5051632;28;20053;-58
2021/11/06 07:43:15;;;;;;;19.33;13.80;;;;;;;4.50;93.14;102272.94;5051652;28;20051;-58
2021/11/06 07:45:42;;;;;;;22.08;13.35;;;;;;;4.52;92.96;102266.78;5051360;28;20049;-59
2021/11/06 07:48:10;;;;;;;20.95;13.23;;;;;;;4.63;92.95;102274.00;5051938;28;20045;-59
2021/11/06 07:50:37;;;;;;;21.65;13.68;;;;;;;4.74;92.86;102276.88;5051547;28;20045;-55
2021/11/06 07:53:04;;;;;;;18.55;12.63;;;;;;;4.82;91.83;102274.72;5051488;28;20128;-56
2021/11/06 07:55:30;;;;;;;23.45;13.13;;;;;;;4.95;92.28;102273.19;5051421;28;20059;-58
2021/11/06 07:57:57;;;;;;;19.15;12.45;;;;;;;4.96;91.32;102292.19;5051892;28;20048;-58
2021/11/06 08:00:24;;;;;;;22.60;13.02;;;;;;;5.04;91.72;102279.66;5051467;28;20409;-55
2021/11/06 08:02:50;;;;;;;18.52;12.55;;;;;;;5.18;91.27;102287.56;5051651;28;20417;-58
2021/11/06 08:05:19;;;;;;;16.55;11.40;;;;;;;5.22;90.97;102286.47;5051188;28;20421;-55
2021/11/06 08:07:46;;;;;;;23.15;13.73;;;;;;;5.25;91.36;102282.88;5051398;28;20469;-54
2021/11/06 08:10:13;;;;;;;18.55;12.00;;;;;;;5.34;91.33;102283.22;5051421;28;20059;-56
2021/11/06 08:12:41;;;;;;;19.00;11.77;;;;;;;5.47;90.80;102273.03;5051519;28;20051;-57
2021/11/06 08:15:09;;;;;;;19.15;11.60;;;;;;;5.53;90.52;102275.28;5051138;28;20051;-58
2021/11/06 08:17:36;;;;;;;17.58;11.93;;;;;;;5.69;90.16;102270.06;5051281;28;20045;-58
2021/11/06 08:20:04;;;;;;;15.55;11.93;;;;;;;5.76;90.03;102278.38;5051505;28;20052;-60
2021/11/06 08:22:32;;;;;;;20.98;11.00;;;;;;;5.83;90.06;102274.50;5051139;28;20247;-61
2021/11/06 08:24:59;;;;;;;14.55;9.98;;;;;;;5.90;89.75;102271.53;5051284;28;20056;-59
2021/11/06 08:27:25;;;;;;;16.70;10.55;;;;;;;5.95;89.46;102273.88;5051310;28;20553;-57
2021/11/06 08:29:52;;;;;;;15.80;10.60;;;;;;;6.04;89.03;102277.72;5051370;28;20049;-64
2021/11/06 08:32:19;;;;;;;14.70;9.45;;;;;;;6.15;89.09;102275.31;5051065;28;20041;-59
2021/11/06 08:34:45;;;;;;;13.88;9.10;;;;;;;6.14;88.57;102278.88;5050964;28;20053;-58
2021/11/06 08:37:12;;;;;;;12.65;9.65;;;;;;;6.19;87.72;102275.06;5050737;28;20056;-58
2021/11/06 08:39:40;;;;;;;12.70;9.18;;;;;;;6.29;88.11;102273.59;5051085;28;20144;-60
2021/11/06 08:42:07;;;;;;;20.83;9.13;;;;;;;6.36;86.70;102281.06;5050821;28;20059;-55
2021/11/06 08:44:33;;;;;;;13.88;9.02;;;;;;;6.45;86.88;102272.72;5050964;28;20055;-56
2021/11/06 08:47:00;;;;;;;13.30;8.80;;;;;;;6.53;86.67;102275.72;5050575;28;20049;-55
2021/11/06 08:49:27;;;;;;;13.55;8.55;;;;;;;6.65;87.23;102282.78;5050779;28;20055;-59
2021/11/06 08:51:56;;;;;;;15.93;8.50;;;;;;;6.72;86.47;102283.25;5051120;28;20416;-60
2021/11/06 08:54:23;;;;;;;10.55;7.72;;;;;;;6.84;85.36;102280.78;5053398;28;20470;-58
2021/11/06 08:56:51;;;;;;;11.35;7.63;;;;;;;6.86;85.69;102278.91;5054438;28;20059;-58
2021/11/06 08:59:18;;;;;;;11.48;7.85;;;;;;;6.97;85.47;102278.28;5054388;28;20055;-56
2021/11/06 09:01:46;;;;;;;13.15;7.70;;;;;;;7.08;84.59;102275.88;5054302;28;20056;-54
2021/11/06 09:04:13;;;;;;;12.07;7.75;;;;;;;7.15;84.66;102268.50;5054465;28;20084;-60
2021/11/06 09:06:39;;;;;;;11.48;7.45;;;;;;;7.20;83.89;102277.69;5054226;28;20142;-60
2021/11/06 09:09:08;;;;;;;10.30;7.28;;;;;;;7.18;83.96;102276.97;5054428;28;20057;-59
2021/11/06 09:11:36;;;;;;;14.85;8.07;;;;;;;7.25;84.49;102272.22;5054200;28;20052;-60
2021/11/06 09:14:04;;;;;;;10.10;7.28;;;;;;;7.39;84.82;102264.41;5054437;28;20053;-59
2021/11/06 09:16:31;;;;;;;8.25;6.32;;;;;;;7.43;83.69;102268.47;5053874;28;20041;-59
2021/11/06 09:18:58;;;;;;;11.20;6.68;;;;;;;7.41;83.37;102270.34;5054354;28;20049;-60
2021/11/06 09:21:26;;;;;;;7.72;6.20;;;;;;;7.56;82.66;102266.75;5054216;28;20383;-60
2021/11/06 09:23:53;;;;;;;10.10;6.22;;;;;;;7.59;82.71;102257.91;5054131;28;20508;-58
2021/11/06 09:26:21;;;;;;;11.27;6.32;;;;;;;7.64;82.12;102261.06;5053651;28;20478;-56
2021/11/06 09:28:48;;;;;;;12.15;6.43;;;;;;;7.72;81.52;102265.78;5054010;28;20140;-58
2021/11/06 09:31:18;;;;;;;9.13;5.75;;;;;;;7.74;82.24;102261.31;5053607;28;20049;-58
2021/11/06 09:33:45;;;;;;;13.82;6.28;;;;;;;7.79;81.44;102270.53;5054160;28;20076;-55
2021/11/06 09:36:13;;;;;;;8.80;6.38;;;;;;;7.97;83.25;102269.34;5053898;28;20052;-58
2021/11/06 09:38:40;;;;;;;11.57;6.43;;;;;;;8.09;81.79;102267.69;5053925;28;20044;-56
2021/11/06 09:41:08;;;;;;;10.25;6.38;;;;;;;8.22;81.35;102268.56;5053943;28;20048;-60
2021/11/06 09:43:36;;;;;;;11.65;6.00;;;;;;;8.64;81.18;102269.28;5053777;28;20053;-60
2021/11/06 09:46:02;;;;;;;9.20;6.32;;;;;;;8.63;79.95;102267.59;5053363;28;20140;-61
2021/11/06 09:48:31;;;;;;;7.68;5.50;;;;;;;9.42;78.08;102267.34;5053692;28;20551;-60
2021/11/06 09:50:59;;;;;;;7.97;5.68;;;;;;;9.92;75.17;102268.91;5053436;28;20049;-60
2021/11/06 09:53:28;;;;;;;10.32;5.28;;;;;;;10.54;73.58;102268.66;5053541;28;20156;-60
2021/11/06 09:55:55;;;;;;;8.40;5.70;;;;;;;10.87;72.15;102265.25;5053211;28;20052;-58
2021/11/06 09:58:22;;;;;;;8.90;5.10;;;;;;;11.26;70.89;102255.25;5053239;28;20055;-59
2021/11/06 10:00:49;;;;;;;6.47;5.18;;;;;;;11.54;70.18;102259.97;5053657;28;20128;-61
2021/11/06 10:03:17;;;;;;;5.88;4.40;;;;;;;12.35;68.48;102263.00;5053405;28;20395;-60
2021/11/06 10:05:52;;;;;;;7.70;4.50;;;;;;;13.11;66.71;102256.50;5052991;28;20084;-61
2021/11/06 10:08:21;;;;;;;5.60;4.22;;;;;;;13.48;66.97;102256.78;5053276;28;20055;-60
2021/11/06 10:10:48;;;;;;;6.85;4.15;;;;;;;13.63;64.78;102260.69;5053041;28;20041;-60
2021/11/06 10:13:15;;;;;;;7.80;4.15;;;;;;;12.82;66.10;102262.44;5053296;28;20049;-60
2021/11/06 10:15:43;;;;;;;5.47;4.25;;;;;;;13.39;64.56;102261.03;5052884;28;20057;-61
2021/11/06 10:18:14;;;;;;;5.13;3.80;;;;;;;14.32;62.91;102263.16;5052840;28;20053;-61
2021/11/06 10:20:41;;;;;;;5.80;3.55;;;;;;;15.13;60.43;102252.94;5052949;28;20048;-61
2021/11/06 10:23:09;;;;;;;7.43;3.85;;;;;;;14.33;60.29;102253.47;5052709;28;20061;-62
2021/11/06 10:25:37;;;;;;;6.43;3.55;;;;;;;13.48;62.29;102246.25;5052800;28;20049;-61
2021/11/06 10:28:06;;;;;;;5.30;3.53;;;;;;;13.24;63.95;102243.97;5052983;28;20048;-61
2021/11/06 10:30:35;;;;;;;7.60;4.03;;;;;;;13.32;62.69;102243.31;5052714;28;20048;-60
2021/11/06 10:33:05;;;;;;;6.88;3.63;;;;;;;13.10;63.56;102241.69;5052738;28;20132;-61
2021/11/06 10:35:34;;;;;;;8.18;3.97;;;;;;;13.88;64.10;102233.81;5052372;28;20048;-60
2021/11/06 10:38:05;;;;;;;9.32;3.97;;;;;;;13.59;65.33;102225.94;5052899;28;20084;-61
2021/11/06 10:40:36;;;;;;;7.43;4.00;;;;;;;13.57;63.08;102225.22;5052642;28;20051;-60
2021/11/06 10:43:04;;;;;;;6.68;4.07;;;;;;;14.21;61.11;102229.91;5052639;28;20135;-60
2021/11/06 10:45:32;;;;;;;10.57;4.00;;;;;;;13.80;63.05;102219.69;5052155;28;20080;-60
2021/11/06 10:48:03;;;;;;;7.78;3.95;;;;;;;14.38;62.13;102217.00;5052505;28;20049;-57
2021/11/06 10:51:02;;;;;;;5.32;4.03;;;;;;;13.71;62.73;102212.63;5052401;28;20048;-60
2021/11/06 10:53:41;;;;;;;7.85;4.45;;;;;;;13.37;64.85;102204.28;5052333;28;20045;-61
2021/11/06 10:56:42;;;;;;;8.90;4.22;;;;;;;13.60;63.68;102209.19;5052109;28;20156;-59
2021/11/06 10:59:12;;;;;;;5.57;3.97;;;;;;;13.86;62.07;102203.34;5052477;28;20052;-60
2021/11/06 11:01:41;;;;;;;6.68;3.75;;;;;;;13.60;63.77;102203.91;5052221;28;20482;-60
2021/11/06 11:04:09;;;;;;;7.55;3.97;;;;;;;14.62;62.13;102206.03;5052254;28;20051;-59
2021/11/06 11:06:38;;;;;;;7.18;4.15;;;;;;;14.69;61.08;102202.66;5052132;28;20051;-60
2021/11/06 11:09:09;;;;;;;8.95;3.92;;;;;;;14.54;61.68;102183.03;5052063;28;20110;-60
2021/11/06 11:11:37;;;;;;;7.63;3.63;;;;;;;14.62;61.86;102188.41;5051711;28;20041;-59
2021/11/06 11:14:06;;;;;;;6.68;4.03;;;;;;;15.43;59.81;102185.88;5051337;28;20052;-56
2021/11/06 11:16:35;;;;;;;7.80;3.58;;;;;;;15.24;60.38;102184.19;5051210;28;20045;-60
2021/11/06 11:19:06;;;;;;;7.85;4.03;;;;;;;14.94;60.54;102178.28;5051897;28;20053;-60